Time;durP1;ratioP1;P1;durP2;ratioP2;P2;SDS_P1;SDS_P2;PMS_P1;PMS_P2;Temp;Humidity;BMP_temperature;BMP_pressure;BME280_temperature;BME280_humidity;BME280_pressure;Samples;Min_cycle;Max_cycle;Signal;HPM_P1;HPM_P2
2022/12/29 00:00:12;;;;;;;0.70;0.70;;;-1.60;99.90;;;;;;5090102;28;20542;-75
2022/12/29 00:02:38;;;;;;;0.70;0.70;;;-1.60;99.90;;;;;;5091165;28;20748;-74
2022/12/29 00:05:07;;;;;;;0.65;0.65;;;-1.60;99.90;;;;;;5073261;28;20196;-74
2022/12/29 00:07:38;;;;;;;0.70;0.70;;;-1.50;99.90;;;;;;5091279;28;20245;-74
2022/12/29 00:10:04;;;;;;;0.70;0.70;;;-1.60;99.90;;;;;;5091123;28;20274;-75
2022/12/29 00:15:36;;;;;;;0.60;0.60;;;-1.60;99.90;;;;;;5052788;28;20243;-75
2022/12/29 00:18:00;;;;;;;0.60;0.60;;;-1.60;99.90;;;;;;5071442;28;20592;-75
2022/12/29 00:36:55;;;;;;;0.73;0.73;;;-1.60;99.90;;;;;;5071042;28;20219;-75
2022/12/29 00:44:51;;;;;;;1.35;1.25;;;-1.40;99.90;;;;;;5052178;28;20247;-74
2022/12/29 00:47:17;;;;;;;0.63;0.63;;;-1.30;99.90;;;;;;5070613;28;20585;-75
2022/12/29 00:49:43;;;;;;;0.70;0.70;;;-1.30;99.90;;;;;;5056758;28;20280;-75
2022/12/29 00:52:13;;;;;;;0.68;0.68;;;-1.20;99.90;;;;;;5057059;28;20220;-75
2022/12/29 00:54:40;;;;;;;0.60;0.60;;;-1.20;99.90;;;;;;5056342;28;20213;-75
2022/12/29 00:57:18;;;;;;;0.80;0.80;;;-1.10;99.90;;;;;;5074919;28;20208;-75
2022/12/29 00:59:45;;;;;;;0.70;0.70;;;-1.10;99.90;;;;;;5056649;28;20197;-74
2022/12/29 01:02:13;;;;;;;0.68;0.68;;;-1.10;99.90;;;;;;5056621;28;20255;-74
2022/12/29 01:04:39;;;;;;;0.70;0.70;;;-1.20;99.90;;;;;;5074514;28;20204;-74
2022/12/29 01:07:14;;;;;;;0.70;0.70;;;-1.10;99.90;;;;;;5058665;28;20201;-74
2022/12/29 01:12:44;;;;;;;0.70;0.70;;;-1.10;99.90;;;;;;5094593;28;20551;-74
2022/12/29 01:15:14;;;;;;;0.80;0.80;;;-1.20;99.90;;;;;;5095804;28;20188;-74
2022/12/29 01:17:49;;;;;;;0.60;0.60;;;-1.20;99.90;;;;;;5096259;28;20674;-73
2022/12/29 01:20:14;;;;;;;0.70;0.70;;;-1.20;99.90;;;;;;5096080;28;20192;-73
2022/12/29 01:22:43;;;;;;;0.60;0.60;;;-1.20;99.90;;;;;;5076993;28;20223;-75
2022/12/29 01:25:12;;;;;;;0.68;0.68;;;-1.10;99.90;;;;;;5077208;28;20197;-73
2022/12/29 01:27:44;;;;;;;0.70;0.70;;;-1.20;99.90;;;;;;5077505;28;20274;-74
2022/12/29 01:30:13;;;;;;;0.60;0.60;;;-1.20;99.90;;;;;;5075989;28;20207;-74
2022/12/29 01:32:39;;;;;;;0.70;0.70;;;-1.20;99.90;;;;;;5076969;28;20227;-74
2022/12/29 01:35:05;;;;;;;0.70;0.70;;;-1.20;99.90;;;;;;5095592;28;20199;-74
2022/12/29 01:37:42;;;;;;;0.70;0.70;;;-1.20;99.90;;;;;;5074909;28;20230;-75
2022/12/29 01:40:13;;;;;;;0.70;0.70;;;-1.20;99.90;;;;;;5056711;28;20193;-75
2022/12/29 01:43:27;;;;;;;0.65;0.65;;;-1.20;99.90;;;;;;5081260;28;20743;-73
2022/12/29 01:45:47;;;;;;;0.68;0.68;;;-1.10;99.90;;;;;;5083162;28;20201;-75
2022/12/29 01:48:13;;;;;;;0.75;0.75;;;-1.10;99.90;;;;;;5094540;28;20203;-74
2022/12/29 01:50:53;;;;;;;0.70;0.70;;;-1.10;99.90;;;;;;5072661;28;20343;-73
2022/12/29 01:53:31;;;;;;;0.75;0.75;;;-1.00;99.90;;;;;;5074495;28;20185;-75
2022/12/29 01:56:04;;;;;;;0.80;0.80;;;-0.90;99.90;;;;;;5073527;28;20296;-75
2022/12/29 01:58:55;;;;;;;0.70;0.70;;;-0.80;99.90;;;;;;5073704;28;20216;-73
2022/12/29 02:01:21;;;;;;;0.70;0.70;;;-0.80;99.90;;;;;;5072994;28;20201;-74
2022/12/29 02:03:49;;;;;;;0.70;0.70;;;-0.80;99.90;;;;;;5073813;28;20725;-74
2022/12/29 02:06:23;;;;;;;0.60;0.60;;;-0.80;99.90;;;;;;5091862;22;20281;-72
2022/12/29 02:08:52;;;;;;;0.85;0.85;;;-0.90;99.90;;;;;;5094095;28;20199;-71
2022/12/29 02:11:23;;;;;;;0.60;0.60;;;-0.90;99.90;;;;;;5093969;28;20184;-72
2022/12/29 02:13:49;;;;;;;0.57;0.57;;;-0.90;99.90;;;;;;5093893;28;20197;-72
2022/12/29 02:16:28;;;;;;;0.70;0.70;;;-0.90;99.90;;;;;;5075151;28;20212;-71
2022/12/29 02:18:54;;;;;;;0.70;0.70;;;-0.90;99.90;;;;;;5076078;28;20196;-72
2022/12/29 02:21:35;;;;;;;0.73;0.73;;;-0.90;99.90;;;;;;5075395;28;20200;-72
2022/12/29 02:24:38;;;;;;;0.70;0.70;;;-0.90;99.90;;;;;;5075520;28;20275;-71
2022/12/29 02:27:28;;;;;;;0.80;0.80;;;-0.90;99.90;;;;;;5093276;28;20199;-73
2022/12/29 02:30:05;;;;;;;0.70;0.70;;;-0.90;99.90;;;;;;5093451;28;20192;-72
2022/12/29 02:32:46;;;;;;;0.60;0.60;;;-0.80;99.90;;;;;;5093157;28;20192;-72
2022/12/29 02:35:20;;;;;;;0.70;0.70;;;-0.80;99.90;;;;;;5093175;28;20203;-73
2022/12/29 02:38:11;;;;;;;0.68;0.68;;;-0.80;99.90;;;;;;5093079;28;20207;-72
2022/12/29 02:41:06;;;;;;;0.70;0.70;;;-0.70;99.90;;;;;;5108732;28;20199;-72
2022/12/29 02:43:44;;;;;;;0.70;0.70;;;-0.70;99.90;;;;;;5089843;28;20746;-72
2022/12/29 02:46:27;;;;;;;0.70;0.70;;;-0.70;99.90;;;;;;5093200;28;20204;-71
2022/12/29 02:49:03;;;;;;;0.63;0.63;;;-0.70;99.90;;;;;;5091731;28;20688;-72
2022/12/29 02:51:42;;;;;;;0.60;0.60;;;-0.70;99.90;;;;;;5092987;28;20191;-71
2022/12/29 02:56:53;;;;;;;0.70;0.70;;;-0.60;99.90;;;;;;5093191;28;20243;-71
2022/12/29 02:59:19;;;;;;;0.60;0.60;;;-0.60;99.90;;;;;;5093223;28;20196;-72
2022/12/29 03:02:17;;;;;;;0.60;0.60;;;-0.60;99.90;;;;;;5092183;28;20650;-72
2022/12/29 03:05:01;;;;;;;0.60;0.60;;;-0.60;99.90;;;;;;5073534;28;20285;-71
2022/12/29 03:07:55;;;;;;;0.60;0.60;;;-0.60;99.90;;;;;;5092187;28;20608;-72
2022/12/29 03:10:46;;;;;;;0.57;0.57;;;-0.50;99.90;;;;;;5074553;28;20631;-71
2022/12/29 03:16:41;;;;;;;0.60;0.60;;;-0.50;99.90;;;;;;5092725;28;20242;-71
2022/12/29 03:19:12;;;;;;;0.80;0.80;;;-0.50;99.90;;;;;;5092786;28;20184;-72
2022/12/29 03:24:38;;;;;;;0.60;0.60;;;-0.50;99.90;;;;;;5091640;28;20261;-72
2022/12/29 03:27:15;;;;;;;0.60;0.60;;;-0.40;99.90;;;;;;5091969;28;20210;-72
2022/12/29 03:29:54;;;;;;;0.70;0.70;;;-0.40;99.90;;;;;;5092339;28;20584;-72
2022/12/29 03:32:23;;;;;;;0.80;0.80;;;-0.40;99.90;;;;;;5091731;28;20188;-71
2022/12/29 03:34:50;;;;;;;0.60;0.60;;;-0.40;99.90;;;;;;5092343;28;20199;-72
2022/12/29 03:37:21;;;;;;;0.70;0.70;;;-0.40;99.90;;;;;;5073933;28;20220;-72
2022/12/29 03:39:47;;;;;;;0.80;0.80;;;-0.40;99.90;;;;;;5092610;28;20223;-71
2022/12/29 03:42:23;;;;;;;0.50;0.50;;;-0.30;99.90;;;;;;5092420;28;20232;-71
2022/12/29 03:44:56;;;;;;;0.70;0.70;;;-0.30;99.90;;;;;;5073924;28;20192;-71
2022/12/29 03:47:22;;;;;;;0.70;0.70;;;-0.30;99.90;;;;;;5091977;28;20192;-71
2022/12/29 03:49:49;;;;;;;1.45;1.35;;;-0.20;99.90;;;;;;5090862;28;20726;-71
2022/12/29 03:52:15;;;;;;;0.70;0.70;;;-0.20;99.90;;;;;;5092126;28;20200;-71
2022/12/29 03:54:41;;;;;;;0.80;0.80;;;-0.20;99.90;;;;;;5092016;28;20203;-71
2022/12/29 03:57:07;;;;;;;0.55;0.55;;;-0.20;99.90;;;;;;5090651;28;20208;-72
2022/12/29 03:59:33;;;;;;;0.70;0.70;;;-0.20;99.90;;;;;;5091818;28;20697;-72
2022/12/29 04:01:59;;;;;;;0.90;0.90;;;-0.20;99.90;;;;;;5090869;28;20188;-71
2022/12/29 04:04:25;;;;;;;0.60;0.60;;;-0.20;99.90;;;;;;5090755;28;20532;-72
2022/12/29 04:06:50;;;;;;;0.63;0.63;;;-0.20;99.90;;;;;;5091930;28;20211;-72
2022/12/29 04:09:16;;;;;;;0.70;0.70;;;-0.10;99.90;;;;;;5091761;28;20662;-72
2022/12/29 04:11:45;;;;;;;0.50;0.50;;;-0.10;99.90;;;;;;5091670;28;20267;-72
2022/12/29 04:14:11;;;;;;;0.70;0.70;;;-0.10;99.90;;;;;;5091858;28;20199;-73
2022/12/29 04:16:38;;;;;;;0.60;0.60;;;-0.10;99.90;;;;;;5091099;28;20203;-73
2022/12/29 04:19:05;;;;;;;2.88;1.55;;;-0.10;99.90;;;;;;5091340;28;20657;-72
2022/12/29 04:21:31;;;;;;;0.60;0.60;;;0.00;99.90;;;;;;5095504;28;20180;-72
2022/12/29 04:23:57;;;;;;;0.70;0.70;;;0.00;99.90;;;;;;5112186;28;20192;-73
2022/12/29 04:26:23;;;;;;;0.68;0.68;;;0.10;99.90;;;;;;5111784;28;20192;-71
2022/12/29 04:28:49;;;;;;;0.70;0.70;;;0.10;99.90;;;;;;5096020;28;20192;-72
2022/12/29 04:31:14;;;;;;;0.63;0.63;;;0.10;99.90;;;;;;5111674;28;20220;-73
2022/12/29 04:33:43;;;;;;;0.70;0.70;;;0.10;99.90;;;;;;5095774;28;20223;-72
2022/12/29 04:36:09;;;;;;;0.50;0.50;;;0.10;99.90;;;;;;5095744;28;20207;-71
2022/12/29 04:38:34;;;;;;;0.50;0.50;;;0.20;99.90;;;;;;5095195;28;20207;-71
2022/12/29 04:41:06;;;;;;;0.70;0.70;;;0.20;99.90;;;;;;5095573;28;20227;-71
2022/12/29 04:43:32;;;;;;;0.70;0.70;;;0.20;99.90;;;;;;5095485;28;20192;-71
2022/12/29 04:45:57;;;;;;;0.60;0.60;;;0.20;99.90;;;;;;5095766;28;20287;-71
2022/12/29 04:48:26;;;;;;;0.68;0.68;;;0.20;99.90;;;;;;5092970;28;20219;-71
2022/12/29 04:50:55;;;;;;;0.60;0.60;;;0.20;99.90;;;;;;5077251;28;20658;-71
2022/12/29 04:53:23;;;;;;;0.60;0.60;;;0.30;99.90;;;;;;5095262;28;20252;-71
2022/12/29 04:55:54;;;;;;;0.70;0.70;;;0.30;99.90;;;;;;5095486;28;20274;-71
2022/12/29 04:58:20;;;;;;;0.70;0.70;;;0.40;99.90;;;;;;5076782;28;20220;-71
2022/12/29 05:00:50;;;;;;;0.73;0.73;;;0.40;99.90;;;;;;5076909;28;20184;-71
2022/12/29 05:03:16;;;;;;;0.95;0.95;;;0.40;99.90;;;;;;5076626;28;20682;-71
2022/12/29 05:05:45;;;;;;;0.60;0.60;;;0.40;99.90;;;;;;5069714;28;20229;-72
2022/12/29 05:08:11;;;;;;;0.50;0.50;;;0.50;99.90;;;;;;5073816;28;20200;-70
2022/12/29 05:10:46;;;;;;;0.60;0.60;;;0.50;99.90;;;;;;5074700;28;20675;-70
2022/12/29 05:13:12;;;;;;;0.60;0.60;;;0.50;99.90;;;;;;5074881;28;20180;-71
2022/12/29 05:15:37;;;;;;;0.50;0.50;;;0.50;99.90;;;;;;5069397;28;20279;-71
2022/12/29 05:18:03;;;;;;;0.70;0.70;;;0.50;99.90;;;;;;5070349;28;20228;-71
2022/12/29 05:20:29;;;;;;;0.70;0.70;;;0.50;99.90;;;;;;5055092;28;20182;-71
2022/12/29 05:22:55;;;;;;;0.60;0.60;;;0.60;99.90;;;;;;5054710;28;20268;-72
2022/12/29 05:25:20;;;;;;;0.65;0.65;;;0.60;99.90;;;;;;5054431;28;20201;-71
2022/12/29 05:27:46;;;;;;;0.60;0.60;;;0.60;99.90;;;;;;5054448;28;20209;-71
2022/12/29 05:30:12;;;;;;;0.70;0.70;;;0.60;99.90;;;;;;5069532;28;20208;-71
2022/12/29 05:32:41;;;;;;;0.70;0.70;;;0.60;99.90;;;;;;5052622;28;20288;-69
2022/12/29 05:35:12;;;;;;;0.60;0.60;;;0.60;99.90;;;;;;5054528;28;20292;-70
2022/12/29 05:37:38;;;;;;;0.70;0.70;;;0.60;99.90;;;;;;5049324;28;20267;-70
2022/12/29 05:40:08;;;;;;;0.50;0.50;;;0.60;99.90;;;;;;5049867;28;20751;-71
2022/12/29 05:42:33;;;;;;;1.17;1.08;;;0.70;99.90;;;;;;5034186;28;20261;-72
2022/12/29 05:44:59;;;;;;;0.70;0.70;;;0.70;99.90;;;;;;5033769;28;20234;-71
2022/12/29 05:47:34;;;;;;;0.80;0.80;;;0.70;99.90;;;;;;5049085;28;20285;-71
2022/12/29 05:50:00;;;;;;;0.60;0.60;;;0.70;99.90;;;;;;5049630;28;20197;-73
2022/12/29 05:52:26;;;;;;;0.60;0.60;;;0.70;99.90;;;;;;5060394;28;20212;-71
2022/12/29 05:54:52;;;;;;;0.73;0.73;;;0.70;99.90;;;;;;5074137;28;20597;-71
2022/12/29 05:57:18;;;;;;;0.50;0.50;;;0.80;99.90;;;;;;5072447;28;20704;-71
2022/12/29 05:59:43;;;;;;;0.50;0.50;;;0.80;99.90;;;;;;5074279;28;20188;-70
2022/12/29 06:02:09;;;;;;;0.60;0.60;;;0.80;99.90;;;;;;5073856;28;20242;-74
2022/12/29 06:04:38;;;;;;;0.60;0.60;;;0.80;99.90;;;;;;5078846;28;20701;-73
2022/12/29 06:07:07;;;;;;;0.70;0.70;;;0.80;99.90;;;;;;5075971;28;20272;-73
2022/12/29 06:09:32;;;;;;;0.60;0.60;;;0.80;99.90;;;;;;5075702;28;20220;-74
2022/12/29 06:11:58;;;;;;;0.50;0.50;;;0.80;99.90;;;;;;5067886;28;20682;-74
2022/12/29 06:14:24;;;;;;;0.60;0.60;;;0.80;99.90;;;;;;5093910;28;20275;-74
2022/12/29 06:16:49;;;;;;;0.57;0.57;;;0.80;99.90;;;;;;5093859;28;20245;-74
2022/12/29 06:19:21;;;;;;;0.60;0.60;;;0.80;99.90;;;;;;5109568;28;20231;-73
2022/12/29 06:21:47;;;;;;;0.55;0.55;;;0.80;99.90;;;;;;5093857;28;20192;-74
2022/12/29 06:24:16;;;;;;;0.60;0.60;;;0.90;99.90;;;;;;5075043;28;20204;-73
2022/12/29 06:26:41;;;;;;;0.60;0.60;;;0.90;99.90;;;;;;5075364;28;20282;-73
2022/12/29 06:29:08;;;;;;;0.60;0.60;;;0.90;99.90;;;;;;5093068;28;20275;-73
2022/12/29 06:31:34;;;;;;;0.60;0.60;;;0.90;99.90;;;;;;5093201;28;20215;-73
2022/12/29 06:33:59;;;;;;;0.65;0.65;;;0.90;99.90;;;;;;5093884;28;20196;-73
2022/12/29 06:36:28;;;;;;;0.68;0.68;;;0.90;99.90;;;;;;5093283;28;20202;-73
2022/12/29 06:38:54;;;;;;;0.68;0.68;;;0.90;99.90;;;;;;5091933;28;20251;-73
2022/12/29 06:41:20;;;;;;;0.60;0.60;;;0.90;99.90;;;;;;5093143;28;20242;-74
2022/12/29 06:43:46;;;;;;;0.68;0.68;;;1.00;99.90;;;;;;5074058;28;20576;-73
2022/12/29 06:46:12;;;;;;;0.55;0.55;;;1.00;99.90;;;;;;5075142;28;20195;-73
2022/12/29 06:48:37;;;;;;;0.60;0.60;;;1.00;99.90;;;;;;5092718;28;20211;-74
2022/12/29 06:51:06;;;;;;;0.52;0.52;;;1.10;99.90;;;;;;5093620;28;20756;-74
2022/12/29 06:53:32;;;;;;;0.70;0.70;;;1.00;99.90;;;;;;5093122;28;20203;-73
2022/12/29 06:56:03;;;;;;;0.60;0.60;;;1.00;99.90;;;;;;5093119;28;20192;-74
2022/12/29 06:58:29;;;;;;;0.60;0.60;;;1.10;99.90;;;;;;5093038;28;20200;-74
2022/12/29 07:00:55;;;;;;;0.65;0.65;;;1.10;99.90;;;;;;5074757;28;20192;-73
2022/12/29 07:03:20;;;;;;;0.55;0.55;;;1.10;99.90;;;;;;5092756;28;20223;-73
2022/12/29 07:05:46;;;;;;;0.70;0.70;;;1.20;99.90;;;;;;5071260;28;20224;-73
2022/12/29 07:08:12;;;;;;;0.68;0.68;;;1.20;99.90;;;;;;5056760;28;20284;-74
2022/12/29 07:10:37;;;;;;;0.60;0.60;;;1.20;99.90;;;;;;5051054;28;20616;-73
2022/12/29 07:13:03;;;;;;;0.70;0.70;;;1.20;99.90;;;;;;5052461;28;20194;-73
2022/12/29 07:15:29;;;;;;;0.60;0.60;;;1.30;99.90;;;;;;5052437;28;20196;-74
2022/12/29 07:17:55;;;;;;;0.60;0.60;;;1.30;99.90;;;;;;5053027;28;20209;-73
2022/12/29 07:20:21;;;;;;;0.70;0.70;;;1.30;99.90;;;;;;5052028;28;20200;-72
2022/12/29 07:22:47;;;;;;;0.60;0.60;;;1.30;99.90;;;;;;5052286;28;20243;-73
2022/12/29 07:25:13;;;;;;;0.60;0.60;;;1.40;99.90;;;;;;5050930;28;20197;-73
2022/12/29 07:27:39;;;;;;;0.60;0.60;;;1.50;99.90;;;;;;5050706;28;20907;-72
2022/12/29 07:30:05;;;;;;;0.60;0.60;;;1.50;99.90;;;;;;5067702;28;20229;-73
2022/12/29 07:32:34;;;;;;;0.60;0.60;;;1.60;99.90;;;;;;5052106;28;20227;-73
2022/12/29 07:35:00;;;;;;;0.60;0.60;;;1.60;99.90;;;;;;5052253;28;20211;-73
2022/12/29 07:37:25;;;;;;;0.50;0.50;;;1.60;99.90;;;;;;5051557;28;20671;-73
2022/12/29 07:39:51;;;;;;;0.60;0.60;;;1.70;99.90;;;;;;5052237;28;20577;-72
2022/12/29 07:42:20;;;;;;;0.70;0.70;;;1.70;99.90;;;;;;5052089;28;20559;-73
2022/12/29 07:44:49;;;;;;;0.57;0.57;;;1.70;99.90;;;;;;5051847;28;20201;-74
2022/12/29 07:47:14;;;;;;;0.55;0.55;;;1.70;99.90;;;;;;5051737;28;20335;-74
2022/12/29 07:49:43;;;;;;;0.60;0.60;;;1.70;99.90;;;;;;5051511;28;20288;-74
2022/12/29 07:52:12;;;;;;;0.70;0.70;;;1.80;99.90;;;;;;5067430;28;20656;-73
2022/12/29 07:54:51;;;;;;;0.50;0.50;;;1.80;99.90;;;;;;5051594;28;20264;-70
2022/12/29 07:57:16;;;;;;;0.50;0.50;;;1.90;99.90;;;;;;5052035;28;20670;-74
2022/12/29 07:59:43;;;;;;;0.60;0.60;;;1.90;99.90;;;;;;5048923;28;20197;-74
2022/12/29 08:02:15;;;;;;;0.50;0.50;;;1.90;99.90;;;;;;5051388;28;20200;-73
2022/12/29 08:04:42;;;;;;;0.60;0.60;;;2.00;99.90;;;;;;5052636;28;20637;-74
2022/12/29 08:07:08;;;;;;;0.68;0.68;;;2.00;99.90;;;;;;5091773;28;20223;-74
2022/12/29 08:09:36;;;;;;;0.60;0.60;;;2.00;99.90;;;;;;5091609;28;20338;-73
2022/12/29 08:12:13;;;;;;;0.52;0.52;;;2.00;99.90;;;;;;5073728;28;20189;-73
2022/12/29 08:14:39;;;;;;;0.60;0.60;;;2.10;99.90;;;;;;5073627;28;20208;-73
2022/12/29 08:17:16;;;;;;;0.63;0.63;;;2.10;99.90;;;;;;5092020;28;20212;-73
2022/12/29 08:19:54;;;;;;;0.70;0.70;;;2.20;99.90;;;;;;5074007;28;20682;-72
2022/12/29 08:22:28;;;;;;;0.60;0.60;;;2.20;99.90;;;;;;5091623;28;20551;-72
2022/12/29 08:24:56;;;;;;;0.70;0.70;;;2.20;99.90;;;;;;5092400;28;20195;-73
2022/12/29 08:27:22;;;;;;;0.70;0.70;;;2.30;99.90;;;;;;5091504;28;20196;-72
2022/12/29 08:29:59;;;;;;;0.65;0.65;;;2.40;99.90;;;;;;5090808;28;20208;-72
2022/12/29 08:32:38;;;;;;;0.70;0.70;;;2.40;99.90;;;;;;5073038;28;20608;-73
2022/12/29 08:35:12;;;;;;;0.52;0.52;;;2.50;99.90;;;;;;5073419;28;20387;-73
2022/12/29 08:37:38;;;;;;;0.50;0.50;;;2.60;99.90;;;;;;5069863;28;20212;-73
2022/12/29 08:43:06;;;;;;;0.60;0.60;;;2.60;99.90;;;;;;5049766;28;20698;-72
2022/12/29 08:45:32;;;;;;;0.45;0.45;;;2.60;99.90;;;;;;5086946;28;20562;-73
2022/12/29 08:48:17;;;;;;;0.60;0.60;;;2.60;99.90;;;;;;5071419;28;20277;-74
2022/12/29 08:50:52;;;;;;;0.60;0.60;;;2.60;99.90;;;;;;5070128;28;20197;-75
2022/12/29 08:53:21;;;;;;;0.57;0.57;;;2.70;99.90;;;;;;5071329;28;20246;-73
2022/12/29 08:55:59;;;;;;;0.50;0.50;;;2.70;99.90;;;;;;5070273;28;20793;-73
2022/12/29 08:58:59;;;;;;;0.60;0.60;;;2.80;99.90;;;;;;5069985;28;20196;-72
2022/12/29 09:01:30;;;;;;;0.50;0.50;;;2.80;99.90;;;;;;5082675;28;20674;-71
2022/12/29 09:04:16;;;;;;;0.60;0.60;;;2.80;99.90;;;;;;5107107;28;20743;-73
2022/12/29 09:06:43;;;;;;;0.57;0.57;;;2.80;99.90;;;;;;5071186;28;20237;-73
2022/12/29 09:09:26;;;;;;;0.50;0.50;;;2.80;99.90;;;;;;5073672;28;20247;-72
2022/12/29 09:11:57;;;;;;;0.50;0.50;;;3.00;99.90;;;;;;5075175;28;20192;-75
2022/12/29 09:14:24;;;;;;;0.60;0.60;;;3.00;99.90;;;;;;5074862;28;20266;-71
2022/12/29 09:19:39;;;;;;;0.50;0.50;;;3.00;99.90;;;;;;5065717;28;20602;-73
2022/12/29 09:22:13;;;;;;;0.60;0.60;;;3.00;99.90;;;;;;5053632;28;20207;-73
2022/12/29 09:24:54;;;;;;;0.70;0.70;;;3.00;99.90;;;;;;5052656;28;20209;-73
2022/12/29 09:27:26;;;;;;;0.63;0.63;;;3.00;99.90;;;;;;5054508;28;20232;-73
2022/12/29 09:30:18;;;;;;;0.57;0.57;;;3.10;99.90;;;;;;5053862;28;20201;-72
2022/12/29 09:32:44;;;;;;;0.50;0.50;;;3.10;99.90;;;;;;5053639;28;20198;-72
2022/12/29 09:35:14;;;;;;;0.50;0.50;;;3.10;99.90;;;;;;5054813;28;20189;-72
2022/12/29 09:37:43;;;;;;;0.60;0.60;;;3.20;99.90;;;;;;5059012;28;20241;-73
2022/12/29 09:40:26;;;;;;;0.60;0.60;;;3.10;99.90;;;;;;5070034;28;20586;-72
2022/12/29 09:43:17;;;;;;;0.60;0.60;;;3.20;99.90;;;;;;5054348;28;20185;-73
2022/12/29 09:45:54;;;;;;;0.60;0.60;;;3.20;99.90;;;;;;5054605;28;20643;-72
2022/12/29 09:48:44;;;;;;;0.60;0.60;;;3.10;99.90;;;;;;5054224;28;20186;-72
2022/12/29 09:51:21;;;;;;;0.60;0.60;;;3.20;99.90;;;;;;5054488;28;20185;-73
2022/12/29 09:54:04;;;;;;;0.50;0.50;;;3.10;99.90;;;;;;5054408;28;20556;-72
2022/12/29 09:56:49;;;;;;;0.65;0.65;;;3.10;99.90;;;;;;5071264;28;20205;-72
2022/12/29 09:59:23;;;;;;;0.60;0.60;;;3.10;99.90;;;;;;5073135;28;20295;-73
2022/12/29 10:02:20;;;;;;;0.57;0.57;;;3.10;99.90;;;;;;5072614;28;20203;-71
2022/12/29 10:04:48;;;;;;;0.70;0.70;;;3.10;99.90;;;;;;5075590;28;20673;-72
2022/12/29 10:07:26;;;;;;;0.60;0.60;;;3.00;99.90;;;;;;5109818;28;20752;-72
2022/12/29 10:10:16;;;;;;;0.60;0.60;;;3.10;99.90;;;;;;5094236;28;20196;-72
2022/12/29 10:13:21;;;;;;;0.70;0.70;;;3.10;99.90;;;;;;5075840;28;20200;-71
2022/12/29 10:16:11;;;;;;;0.60;0.60;;;3.10;99.90;;;;;;5075857;28;20211;-73
2022/12/29 10:19:05;;;;;;;0.60;0.60;;;3.10;99.90;;;;;;5074887;28;20312;-72
2022/12/29 10:22:01;;;;;;;0.60;0.60;;;3.20;99.90;;;;;;5075142;28;20218;-73
2022/12/29 10:24:38;;;;;;;0.70;0.70;;;3.20;99.90;;;;;;5075901;28;20518;-73
2022/12/29 10:27:12;;;;;;;0.60;0.60;;;3.20;99.90;;;;;;5094083;28;20204;-73
2022/12/29 10:29:58;;;;;;;0.60;0.60;;;3.30;99.90;;;;;;5093823;28;20294;-71
2022/12/29 10:32:45;;;;;;;0.57;0.57;;;3.40;99.90;;;;;;5075440;28;20199;-72
2022/12/29 10:35:23;;;;;;;0.50;0.50;;;3.30;99.90;;;;;;5075517;28;20253;-72
2022/12/29 10:38:13;;;;;;;0.68;0.68;;;3.30;99.90;;;;;;5071146;28;20219;-72
2022/12/29 10:41:10;;;;;;;0.70;0.70;;;3.30;99.90;;;;;;5073668;28;20221;-72
2022/12/29 10:43:57;;;;;;;0.68;0.68;;;3.40;99.90;;;;;;5075021;28;20196;-73
2022/12/29 10:46:35;;;;;;;0.50;0.50;;;3.50;99.90;;;;;;5073529;28;20254;-73
2022/12/29 10:49:08;;;;;;;0.63;0.63;;;3.50;99.90;;;;;;5073185;28;20192;-72
2022/12/29 10:51:39;;;;;;;0.65;0.65;;;3.40;99.90;;;;;;5074054;28;20211;-73
2022/12/29 10:54:20;;;;;;;0.60;0.60;;;3.50;99.90;;;;;;5075434;28;20261;-73
2022/12/29 10:57:01;;;;;;;0.85;0.85;;;3.60;99.90;;;;;;5092883;28;20200;-73
2022/12/29 10:59:30;;;;;;;0.80;0.80;;;3.60;99.90;;;;;;5092760;28;20198;-73
2022/12/29 11:02:05;;;;;;;0.60;0.60;;;3.60;99.90;;;;;;5108902;28;20218;-71
2022/12/29 11:04:46;;;;;;;0.50;0.50;;;3.90;99.90;;;;;;5093017;28;20259;-72
2022/12/29 11:07:18;;;;;;;0.82;0.82;;;3.90;99.90;;;;;;5093415;28;20208;-72
2022/12/29 11:09:50;;;;;;;0.68;0.68;;;3.80;99.90;;;;;;5075242;28;20204;-73
2022/12/29 11:12:22;;;;;;;0.50;0.50;;;3.90;99.90;;;;;;5082010;28;20209;-72
2022/12/29 11:15:09;;;;;;;0.70;0.70;;;4.00;99.90;;;;;;5072820;28;20290;-72
2022/12/29 11:17:47;;;;;;;0.60;0.60;;;3.90;99.90;;;;;;5087994;28;20626;-72
2022/12/29 11:20:33;;;;;;;0.57;0.57;;;3.90;99.90;;;;;;5070778;28;20197;-72
2022/12/29 11:23:03;;;;;;;0.43;0.43;;;3.90;99.90;;;;;;5072849;28;20193;-71
2022/12/29 11:25:29;;;;;;;0.60;0.60;;;4.00;99.90;;;;;;5071698;28;20267;-72
2022/12/29 11:28:15;;;;;;;0.50;0.50;;;4.00;99.90;;;;;;5071306;28;20209;-71
2022/12/29 11:30:44;;;;;;;0.60;0.60;;;4.00;99.90;;;;;;5073630;28;20573;-72
2022/12/29 11:33:12;;;;;;;0.52;0.52;;;4.00;99.90;;;;;;5092731;28;20278;-73
2022/12/29 11:35:45;;;;;;;0.50;0.50;;;4.10;99.90;;;;;;5092127;28;20220;-72
2022/12/29 11:38:21;;;;;;;0.70;0.70;;;4.10;99.90;;;;;;5092357;28;20210;-73
2022/12/29 11:40:48;;;;;;;0.60;0.60;;;4.10;99.90;;;;;;5074302;28;20220;-73
2022/12/29 11:43:30;;;;;;;0.95;0.95;;;4.20;99.90;;;;;;5092425;28;20198;-73
2022/12/29 11:45:56;;;;;;;0.52;0.52;;;4.10;99.90;;;;;;5092359;28;20192;-73
2022/12/29 11:48:22;;;;;;;0.82;0.80;;;4.20;99.90;;;;;;5073795;28;20201;-73
2022/12/29 11:51:00;;;;;;;0.65;0.65;;;4.20;99.90;;;;;;5091042;28;20196;-73
2022/12/29 11:53:32;;;;;;;1.08;1.00;;;4.20;99.90;;;;;;5073901;28;20657;-72
2022/12/29 11:56:35;;;;;;;0.52;0.52;;;4.30;99.90;;;;;;5092247;28;20278;-72
2022/12/29 11:59:37;;;;;;;0.60;0.60;;;4.30;99.90;;;;;;5060341;28;20203;-72
2022/12/29 12:02:31;;;;;;;0.43;0.43;;;4.30;99.90;;;;;;5092035;28;20195;-72
2022/12/29 12:05:10;;;;;;;0.60;0.60;;;4.30;99.90;;;;;;5073841;28;20251;-72
2022/12/29 12:07:40;;;;;;;0.60;0.60;;;4.30;99.90;;;;;;5091595;28;20207;-73
2022/12/29 12:10:38;;;;;;;0.60;0.60;;;4.30;99.90;;;;;;5073696;28;20214;-72
2022/12/29 12:13:37;;;;;;;0.70;0.70;;;4.50;99.90;;;;;;5087811;28;20220;-72
2022/12/29 12:16:19;;;;;;;0.60;0.60;;;4.60;99.90;;;;;;5092188;28;20188;-73
2022/12/29 12:19:00;;;;;;;0.60;0.60;;;4.60;99.90;;;;;;5073767;28;20681;-72
2022/12/29 12:21:46;;;;;;;0.93;0.93;;;4.60;99.90;;;;;;5091263;28;20222;-73
2022/12/29 12:24:36;;;;;;;0.50;0.50;;;4.60;99.90;;;;;;5091592;28;20191;-71
2022/12/29 12:27:04;;;;;;;0.52;0.52;;;4.70;99.90;;;;;;5073512;28;20215;-72
2022/12/29 12:29:56;;;;;;;0.60;0.60;;;4.70;99.90;;;;;;5107418;28;20207;-72
2022/12/29 12:33:05;;;;;;;0.52;0.52;;;4.70;99.90;;;;;;5091662;28;20184;-73
2022/12/29 12:35:37;;;;;;;0.60;0.60;;;4.80;99.90;;;;;;5090277;28;20295;-73
2022/12/29 12:38:30;;;;;;;0.60;0.60;;;4.80;99.90;;;;;;5084643;28;20239;-72
2022/12/29 12:41:08;;;;;;;0.60;0.60;;;4.90;99.90;;;;;;5072239;28;20193;-72
2022/12/29 12:43:51;;;;;;;0.70;0.70;;;5.00;99.90;;;;;;5073851;28;20196;-73
2022/12/29 12:46:41;;;;;;;0.60;0.60;;;5.10;99.90;;;;;;5086072;28;20191;-73
2022/12/29 12:49:29;;;;;;;0.50;0.50;;;5.10;99.90;;;;;;5096099;28;20195;-73
2022/12/29 12:52:14;;;;;;;0.60;0.60;;;5.10;99.90;;;;;;5095499;28;20677;-73
2022/12/29 12:54:42;;;;;;;0.52;0.52;;;5.10;99.90;;;;;;5111172;28;20253;-72
2022/12/29 12:57:18;;;;;;;0.50;0.50;;;5.10;99.90;;;;;;5095301;28;20235;-73
2022/12/29 13:00:05;;;;;;;0.60;0.60;;;5.10;99.90;;;;;;5095581;28;20199;-72
2022/12/29 13:03:01;;;;;;;0.70;0.70;;;5.30;99.90;;;;;;5095022;28;20227;-72
2022/12/29 13:05:56;;;;;;;0.70;0.70;;;5.30;99.90;;;;;;5073137;28;20311;-73
2022/12/29 13:08:30;;;;;;;0.70;0.70;;;5.40;99.90;;;;;;5073415;28;20659;-73
2022/12/29 13:11:11;;;;;;;0.60;0.60;;;5.30;99.90;;;;;;5073757;28;20197;-73
2022/12/29 13:13:58;;;;;;;0.47;0.47;;;5.30;99.90;;;;;;5050433;28;20194;-72
2022/12/29 13:17:01;;;;;;;0.50;0.50;;;5.40;99.90;;;;;;5034618;28;20557;-72
2022/12/29 13:19:42;;;;;;;0.70;0.70;;;5.40;99.90;;;;;;5034879;28;20217;-72
2022/12/29 13:22:22;;;;;;;0.50;0.50;;;5.50;99.90;;;;;;5039982;28;20192;-72
2022/12/29 13:24:56;;;;;;;0.60;0.60;;;5.50;99.90;;;;;;5053362;28;20190;-71
2022/12/29 13:27:50;;;;;;;0.63;0.63;;;5.50;99.90;;;;;;5054861;28;20697;-74
2022/12/29 13:30:20;;;;;;;0.60;0.60;;;5.50;99.90;;;;;;5054136;28;20202;-72
2022/12/29 13:33:09;;;;;;;0.98;0.95;;;5.50;99.90;;;;;;5053354;28;20230;-72
2022/12/29 13:35:58;;;;;;;0.63;0.63;;;5.50;99.90;;;;;;5052566;28;20216;-72
2022/12/29 13:38:30;;;;;;;0.50;0.50;;;5.50;99.90;;;;;;5054685;28;20664;-73
2022/12/29 13:41:04;;;;;;;0.60;0.60;;;5.60;99.90;;;;;;5054274;28;20593;-73
2022/12/29 13:43:36;;;;;;;0.50;0.50;;;5.60;99.90;;;;;;5054044;28;20221;-72
2022/12/29 13:46:09;;;;;;;0.95;0.93;;;5.60;99.90;;;;;;5054594;28;20192;-72
2022/12/29 13:48:51;;;;;;;0.55;0.55;;;5.60;99.90;;;;;;5054009;28;20194;-72
2022/12/29 13:51:26;;;;;;;1.60;0.80;;;5.50;99.90;;;;;;5051957;28;20205;-72
2022/12/29 13:54:24;;;;;;;0.65;0.65;;;5.50;99.90;;;;;;5061709;28;20275;-72
2022/12/29 13:57:12;;;;;;;0.60;0.60;;;5.50;99.90;;;;;;5073195;28;20694;-71
2022/12/29 14:00:20;;;;;;;0.57;0.57;;;5.50;99.90;;;;;;5074229;28;20185;-72
2022/12/29 14:02:48;;;;;;;0.60;0.60;;;5.60;99.90;;;;;;5051473;28;20576;-71
2022/12/29 14:05:28;;;;;;;0.60;0.60;;;5.60;99.90;;;;;;5051172;28;20231;-72
2022/12/29 14:08:18;;;;;;;0.60;0.60;;;5.60;99.90;;;;;;5045796;28;20220;-72
2022/12/29 14:10:53;;;;;;;0.70;0.70;;;5.70;99.90;;;;;;5031581;28;20206;-71
2022/12/29 14:13:24;;;;;;;0.50;0.50;;;5.70;99.90;;;;;;5014939;28;20210;-73